createdAt,value
2023-01-21T00:00:55.514Z,0.23
2023-01-21T00:06:05.096Z,-0.09
2023-01-21T00:11:16.499Z,0.05
2023-01-21T00:16:22.799Z,-0.14
2023-01-21T00:21:31.940Z,-0.02
2023-01-21T00:26:37.650Z,-0.18
2023-01-21T00:31:43.284Z,-0.05
2023-01-21T00:36:54.476Z,-0.08
2023-01-21T00:42:05.430Z,-0.39
2023-01-21T00:47:11.545Z,-0.21
2023-01-21T00:52:20.138Z,-0.45
2023-01-21T00:57:26.514Z,-0.08
2023-01-21T01:02:33.531Z,-0.59
2023-01-21T01:07:46.269Z,-0.03
2023-01-21T01:12:52.540Z,-0.28
2023-01-21T01:17:58.451Z,-0.55
2023-01-21T01:23:07.245Z,-0.37
2023-01-21T01:28:13.550Z,-0.45
2023-01-21T01:33:19.606Z,-0.50
2023-01-21T01:38:29.921Z,-0.66
2023-01-21T01:43:58.527Z,-0.41
2023-01-21T01:49:15.272Z,-0.39
2023-01-21T01:54:29.287Z,-0.55
2023-01-21T01:59:36.631Z,-0.72
2023-01-21T02:04:47.660Z,-0.63
2023-01-21T02:10:15.257Z,-0.49
2023-01-21T02:15:21.524Z,-0.79
2023-01-21T02:20:55.655Z,-0.58
2023-01-21T02:26:35.392Z,-0.92
2023-01-21T02:32:14.030Z,-0.74
2023-01-21T02:37:30.822Z,-0.75
2023-01-21T02:42:43.732Z,-0.80
2023-01-21T02:47:55.983Z,-0.87
2023-01-21T02:53:06.645Z,-0.92
2023-01-21T02:58:15.259Z,-1.17
2023-01-21T03:03:35.818Z,-0.96
2023-01-21T03:08:51.470Z,-0.67
2023-01-21T03:14:16.762Z,-0.85
2023-01-21T03:19:25.530Z,-0.80
2023-01-21T03:24:35.955Z,-1.03
2023-01-21T03:29:44.125Z,-1.03
2023-01-21T03:34:55.337Z,-0.80
2023-01-21T03:40:15.783Z,-1.30
2023-01-21T03:45:27.717Z,-0.87
2023-01-21T03:50:38.761Z,-0.85
2023-01-21T03:55:47.841Z,-0.86
2023-01-21T04:00:53.267Z,-0.86
2023-01-21T04:05:59.627Z,-0.85
2023-01-21T04:11:08.214Z,-0.81
2023-01-21T04:16:16.469Z,-0.87
2023-01-21T04:21:21.924Z,-0.40
2023-01-21T04:26:31.789Z,-0.63
2023-01-21T04:31:37.743Z,-0.73
2023-01-21T04:36:43.356Z,-0.83
2023-01-21T04:41:52.781Z,-0.79
2023-01-21T04:47:00.639Z,-0.64
2023-01-21T04:52:06.452Z,-0.68
2023-01-21T04:57:14.756Z,-0.73
2023-01-21T05:02:20.180Z,-0.63
2023-01-21T05:07:26.468Z,-0.73
2023-01-21T05:12:35.113Z,-0.66
2023-01-21T05:17:40.838Z,-0.88
2023-01-21T05:22:49.096Z,-0.80
2023-01-21T05:28:00.121Z,-0.74
2023-01-21T05:33:06.122Z,-1.03
2023-01-21T05:38:11.716Z,-0.85
2023-01-21T05:43:19.918Z,-0.74
2023-01-21T05:48:26.395Z,-0.76
2023-01-21T05:53:32.120Z,-0.77
2023-01-21T05:58:40.373Z,-1.05
2023-01-21T06:03:45.977Z,-1.14
2023-01-21T06:08:51.506Z,-1.11
2023-01-21T06:13:59.874Z,-0.84
2023-01-21T06:19:05.318Z,-0.97
2023-01-21T06:24:11.473Z,-0.88
2023-01-21T06:29:19.946Z,-1.01
2023-01-21T06:34:25.358Z,-0.94
2023-01-21T06:39:31.076Z,-0.90
2023-01-21T06:44:38.935Z,-1.13
2023-01-21T06:49:47.351Z,-0.66
2023-01-21T06:54:53.189Z,-0.67
2023-01-21T07:00:01.340Z,-0.88
2023-01-21T07:05:07.498Z,-0.84
2023-01-21T07:10:14.821Z,-0.85
2023-01-21T07:15:23.594Z,-0.85
2023-01-21T07:20:29.517Z,-0.74
2023-01-21T07:25:36.443Z,-0.45
2023-01-21T07:30:44.585Z,-0.82
2023-01-21T07:35:50.331Z,-0.78
2023-01-21T07:40:55.969Z,-0.86
2023-01-21T07:46:05.473Z,-0.67
2023-01-21T07:51:10.866Z,-0.87
2023-01-21T07:56:18.388Z,-0.78
2023-01-21T08:01:31.279Z,-0.60
2023-01-21T08:06:38.029Z,-0.69
2023-01-21T08:11:43.640Z,-0.50
2023-01-21T08:16:51.914Z,-0.45
2023-01-21T08:21:57.928Z,-0.56
2023-01-21T08:27:03.762Z,-0.34
2023-01-21T08:32:12.766Z,-0.48
2023-01-21T08:37:18.427Z,-0.33
2023-01-21T08:42:23.872Z,-0.37
2023-01-21T08:47:32.235Z,-0.36
2023-01-21T08:52:37.868Z,-0.22
2023-01-21T08:57:43.382Z,-0.27
2023-01-21T09:02:51.969Z,-0.21
2023-01-21T09:07:58.293Z,0.03
2023-01-21T09:13:07.630Z,-0.15
2023-01-21T09:18:15.850Z,-0.05
2023-01-21T09:23:28.422Z,-0.05
2023-01-21T09:28:35.036Z,-0.31
2023-01-21T09:33:46.272Z,-0.14
2023-01-21T09:38:52.778Z,-0.15
2023-01-21T09:44:06.597Z,-0.04
2023-01-21T09:49:21.977Z,0.13
2023-01-21T09:54:30.328Z,-0.07
2023-01-21T09:59:52.076Z,0.22
2023-01-21T10:05:16.427Z,0.34
2023-01-21T10:10:33.003Z,0.05
2023-01-21T10:15:58.649Z,0.30
2023-01-21T10:21:16.786Z,0.31
2023-01-21T10:26:22.285Z,0.27
2023-01-21T10:31:30.339Z,0.13
2023-01-21T10:36:52.243Z,0.22
2023-01-21T10:42:42.767Z,0.26
2023-01-21T10:47:53.879Z,0.27
2023-01-21T10:53:09.619Z,0.32
2023-01-21T10:58:33.119Z,0.58
2023-01-21T11:03:43.063Z,0.48
2023-01-21T11:08:56.243Z,0.69
2023-01-21T11:14:02.427Z,0.44
2023-01-21T11:19:10.591Z,0.80
2023-01-21T11:24:30.006Z,0.75
2023-01-21T11:29:44.638Z,0.69
2023-01-21T11:34:52.053Z,0.64
2023-01-21T11:40:02.695Z,0.62
2023-01-21T11:45:30.137Z,0.59
2023-01-21T11:50:40.027Z,0.62
2023-01-21T11:55:50.944Z,0.49
2023-01-21T12:01:01.809Z,0.94
2023-01-21T12:06:09.638Z,0.79
2023-01-21T12:11:24.259Z,0.56
2023-01-21T12:16:37.127Z,0.95
2023-01-21T12:21:57.673Z,0.97
2023-01-21T12:27:19.689Z,0.78
2023-01-21T12:32:30.838Z,0.98
2023-01-21T12:37:43.095Z,0.89
2023-01-21T12:42:56.755Z,1.04
2023-01-21T12:48:08.094Z,1.10
2023-01-21T12:53:23.661Z,1.30
2023-01-21T12:58:37.174Z,1.27
2023-01-21T13:03:55.330Z,1.07
2023-01-21T13:09:11.535Z,1.24
2023-01-21T13:14:30.529Z,0.91
2023-01-21T13:19:39.118Z,1.03
2023-01-21T13:25:18.759Z,1.21
2023-01-21T13:30:38.089Z,1.12
2023-01-21T13:35:57.276Z,0.87
2023-01-21T13:41:18.295Z,1.05
2023-01-21T13:46:42.801Z,0.86
2023-01-21T13:51:59.954Z,0.88
2023-01-21T13:57:29.161Z,0.79
2023-01-21T14:02:55.326Z,0.78
2023-01-21T14:08:09.777Z,0.97
2023-01-21T14:13:45.137Z,0.95
2023-01-21T14:19:08.291Z,0.81
2023-01-21T14:24:32.153Z,0.62
2023-01-21T14:29:41.509Z,0.76
2023-01-21T14:35:10.238Z,0.83
2023-01-21T14:40:23.105Z,0.74
2023-01-21T14:45:56.680Z,0.81
2023-01-21T14:51:25.484Z,0.59
2023-01-21T14:56:34.359Z,0.55
2023-01-21T15:01:46.798Z,0.93
2023-01-21T15:06:58.759Z,0.92
2023-01-21T15:12:08.689Z,0.78
2023-01-21T15:17:44.573Z,0.80
2023-01-21T15:23:07.017Z,0.71
2023-01-21T15:28:44.468Z,0.71
2023-01-21T15:33:51.978Z,0.90
2023-01-21T15:39:03.399Z,0.82
2023-01-21T15:44:19.405Z,0.75
2023-01-21T15:49:52.279Z,0.92
2023-01-21T15:55:12.699Z,0.89
2023-01-21T16:00:31.518Z,0.81
2023-01-21T16:05:46.960Z,0.96
2023-01-21T16:11:08.508Z,0.62
2023-01-21T16:16:26.595Z,0.78
2023-01-21T16:21:37.400Z,0.88
2023-01-21T16:26:46.449Z,0.83
2023-01-21T16:31:59.510Z,0.83
2023-01-21T16:37:09.185Z,0.84
2023-01-21T16:42:29.233Z,0.90
2023-01-21T16:47:38.852Z,0.83
2023-01-21T16:52:44.064Z,0.72
2023-01-21T16:57:58.306Z,0.81
2023-01-21T17:03:04.837Z,0.84
2023-01-21T17:08:15.720Z,0.94
2023-01-21T17:13:25.801Z,0.76
2023-01-21T17:18:34.951Z,0.90
2023-01-21T17:23:53.890Z,0.69
2023-01-21T17:29:13.831Z,0.77
2023-01-21T17:34:24.953Z,0.65
2023-01-21T17:40:01.263Z,0.72
2023-01-21T17:45:22.522Z,0.70
2023-01-21T17:50:30.442Z,0.51
2023-01-21T17:55:38.040Z,0.86
2023-01-21T18:00:48.807Z,0.71
2023-01-21T18:05:54.465Z,0.92
2023-01-21T18:10:59.599Z,0.85
2023-01-21T18:16:07.910Z,0.72
2023-01-21T18:21:22.934Z,0.90
2023-01-21T18:26:31.399Z,0.83
2023-01-21T18:31:39.101Z,0.67
2023-01-21T18:36:44.934Z,0.79
2023-01-21T18:41:50.007Z,0.74
2023-01-21T18:46:57.900Z,0.75
2023-01-21T18:52:03.259Z,0.71
2023-01-21T18:57:09.314Z,0.92
2023-01-21T19:02:20.531Z,0.60
2023-01-21T19:07:26.297Z,0.63
2023-01-21T19:12:33.606Z,0.68
2023-01-21T19:17:42.457Z,0.62
2023-01-21T19:22:47.515Z,0.62
2023-01-21T19:27:54.627Z,0.64
2023-01-21T19:33:03.747Z,0.59
2023-01-21T19:38:13.946Z,0.54
2023-01-21T19:43:21.467Z,0.59
2023-01-21T19:48:31.358Z,0.57
2023-01-21T19:53:36.285Z,0.57
2023-01-21T19:58:42.225Z,0.58
2023-01-21T20:03:59.653Z,0.56
2023-01-21T20:09:05.942Z,0.62
2023-01-21T20:14:11.301Z,0.54
2023-01-21T20:19:22.806Z,0.52
2023-01-21T20:24:30.310Z,0.53
2023-01-21T20:29:36.014Z,0.48
2023-01-21T20:34:45.139Z,0.65
2023-01-21T20:39:49.983Z,0.64
2023-01-21T20:44:55.084Z,0.50
2023-01-21T20:50:02.683Z,0.50
2023-01-21T20:55:08.823Z,0.56
2023-01-21T21:00:19.151Z,0.51
2023-01-21T21:05:28.866Z,0.47
2023-01-21T21:10:37.676Z,0.49
2023-01-21T21:15:46.425Z,0.45
2023-01-21T21:20:55.346Z,0.56
2023-01-21T21:26:00.345Z,0.54
2023-01-21T21:31:05.376Z,0.41
2023-01-21T21:36:17.529Z,0.57
2023-01-21T21:41:37.133Z,0.59
2023-01-21T21:46:55.569Z,0.56
2023-01-21T21:52:03.160Z,0.68
2023-01-21T21:57:08.137Z,0.52
2023-01-21T22:02:13.654Z,0.51
2023-01-21T22:07:21.647Z,0.52
2023-01-21T22:12:26.593Z,0.60
2023-01-21T22:17:31.622Z,0.46
2023-01-21T22:22:39.313Z,0.46
2023-01-21T22:27:44.258Z,0.51
2023-01-21T22:32:49.107Z,0.49
2023-01-21T22:37:56.764Z,0.52
2023-01-21T22:43:01.644Z,0.46
2023-01-21T22:48:06.796Z,0.54
2023-01-21T22:53:14.701Z,0.50
2023-01-21T22:58:19.639Z,0.50
2023-01-21T23:03:25.507Z,0.60
2023-01-21T23:08:33.013Z,0.52
2023-01-21T23:13:38.427Z,0.56
2023-01-21T23:18:43.782Z,0.46
2023-01-21T23:23:52.354Z,0.48
2023-01-21T23:28:58.642Z,0.45
2023-01-21T23:34:03.743Z,0.50
2023-01-21T23:39:11.317Z,0.44
2023-01-21T23:44:16.223Z,0.43
2023-01-21T23:49:21.236Z,0.45
2023-01-21T23:54:28.923Z,0.56
2023-01-21T23:59:33.742Z,0.49
